Terminal Aerodrome Forecast
Issued by NWS

Home | Current Version | Previous Version | Text Only | Print | Product List | Glossary On
Versions: 1 2 3 4 5 6 7 8 9 10 11 12
167
FTUS43 KGRB 241729
TAFMTW
TAF
KMTW 241729Z 2418/2518 17010G17KT P6SM SCT050 BKN100
      TEMPO 2418/2420 -SHRA BKN050
     FM242000 21007KT P6SM VCSH BKN050
      TEMPO 2420/2423 3SM -TSRA BKN025CB
     FM250200 24004KT P6SM SCT045 BKN080
     FM250800 02006KT P6SM SCT006
      TEMPO 2509/2512 3SM BR BKN005
     FM251400 09009G15KT P6SM SCT018 BKN250=

USA.gov is the U.S. government's official web portal to all federal, state and local government web resources and services.